createdAt,value
2022-09-20T00:01:54.137Z,29.78
2022-09-20T00:04:20.476Z,30.20
2022-09-20T00:06:46.831Z,30.04
2022-09-20T00:09:13.183Z,30.09
2022-09-20T00:11:39.498Z,30.19
2022-09-20T00:14:05.831Z,30.03
2022-09-20T00:16:32.343Z,29.99
2022-09-20T00:18:58.730Z,30.10
2022-09-20T00:21:25.042Z,30.20
2022-09-20T00:23:51.373Z,30.22
2022-09-20T00:26:17.733Z,30.06
2022-09-20T00:28:44.069Z,30.16
2022-09-20T00:31:10.524Z,30.00
2022-09-20T00:33:36.857Z,30.31
2022-09-20T00:36:03.198Z,30.21
2022-09-20T00:38:29.523Z,30.32
2022-09-20T00:40:55.830Z,30.32
2022-09-20T00:43:22.179Z,30.45
2022-09-20T00:45:48.551Z,30.24
2022-09-20T00:48:14.925Z,30.50
2022-09-20T00:50:41.257Z,30.16
2022-09-20T00:53:07.604Z,30.27
2022-09-20T00:55:34.004Z,30.33
2022-09-20T00:58:00.334Z,30.50
2022-09-20T01:00:26.672Z,30.53
2022-09-20T01:02:52.982Z,30.33
2022-09-20T01:05:19.333Z,30.47
2022-09-20T01:07:45.689Z,30.65
2022-09-20T01:10:12.012Z,30.72
2022-09-20T01:12:38.392Z,30.50
2022-09-20T01:15:04.754Z,30.83
2022-09-20T01:17:31.122Z,30.66
2022-09-20T01:19:57.489Z,30.54
2022-09-20T01:22:23.814Z,30.76
2022-09-20T01:24:50.178Z,30.93
2022-09-20T01:27:16.506Z,30.93
2022-09-20T01:29:42.880Z,30.90
2022-09-20T01:32:09.272Z,30.88
2022-09-20T01:34:35.631Z,30.78
2022-09-20T01:37:01.985Z,31.08
2022-09-20T01:39:28.309Z,31.11
2022-09-20T01:41:54.666Z,31.15
2022-09-20T01:44:20.996Z,31.21
2022-09-20T01:46:47.325Z,31.10
2022-09-20T01:49:13.680Z,31.46
2022-09-20T01:51:40.019Z,31.31
2022-09-20T01:54:06.365Z,31.67
2022-09-20T01:56:32.716Z,32.04
2022-09-20T01:59:19.848Z,31.75
2022-09-20T02:01:45.347Z,31.72
2022-09-20T02:04:11.681Z,32.00
2022-09-20T02:06:38.001Z,32.09
2022-09-20T02:09:04.339Z,31.81
2022-09-20T02:11:30.650Z,31.89
2022-09-20T02:13:56.993Z,32.00
2022-09-20T02:16:23.334Z,31.97
2022-09-20T02:18:49.695Z,31.85
2022-09-20T02:21:16.009Z,31.97
2022-09-20T02:23:42.315Z,31.89
2022-09-20T02:26:08.635Z,31.85
2022-09-20T02:28:34.995Z,31.77
2022-09-20T02:31:01.360Z,31.83
2022-09-20T02:33:27.687Z,31.83
2022-09-20T02:35:54.011Z,32.10
2022-09-20T02:38:20.350Z,31.96
2022-09-20T02:40:46.680Z,31.80
2022-09-20T02:43:13.000Z,31.76
2022-09-20T02:45:39.361Z,31.71
2022-09-20T02:48:05.727Z,31.85
2022-09-20T02:50:32.052Z,32.04
2022-09-20T02:52:58.388Z,32.03
2022-09-20T02:55:24.695Z,32.31
2022-09-20T02:57:51.025Z,32.10
2022-09-20T03:00:17.333Z,32.05
2022-09-20T03:02:43.743Z,31.66
2022-09-20T03:05:10.146Z,31.80
2022-09-20T03:07:36.457Z,31.84
2022-09-20T03:10:02.815Z,31.74
2022-09-20T03:12:29.125Z,31.96
2022-09-20T03:14:55.454Z,31.78
2022-09-20T03:17:21.775Z,31.58
2022-09-20T03:19:48.183Z,31.83
2022-09-20T03:22:14.538Z,31.58
2022-09-20T03:24:40.920Z,31.96
2022-09-20T03:27:07.244Z,31.55
2022-09-20T03:29:33.578Z,32.01
2022-09-20T03:31:59.940Z,31.58
2022-09-20T03:34:26.303Z,31.43
2022-09-20T03:36:52.623Z,31.57
2022-09-20T03:39:18.945Z,31.79
2022-09-20T03:41:45.278Z,31.60
2022-09-20T03:44:11.599Z,31.59
2022-09-20T03:46:37.929Z,31.54
2022-09-20T03:49:04.285Z,31.59
2022-09-20T03:51:34.155Z,31.32
2022-09-20T03:54:00.726Z,31.61
2022-09-20T03:56:27.041Z,31.61
2022-09-20T03:58:53.384Z,31.74
2022-09-20T04:01:19.798Z,31.59
2022-09-20T04:03:46.173Z,31.50
2022-09-20T04:06:12.496Z,31.66
2022-09-20T04:08:40.293Z,31.39
2022-09-20T04:11:06.749Z,31.65
2022-09-20T04:13:33.055Z,31.32
2022-09-20T04:15:59.382Z,31.75
2022-09-20T04:18:25.711Z,31.57
2022-09-20T04:20:52.124Z,31.42
2022-09-20T04:23:18.455Z,31.70
2022-09-20T04:25:44.838Z,31.47
2022-09-20T04:28:11.159Z,31.44
2022-09-20T04:30:37.490Z,31.52
2022-09-20T04:33:03.808Z,31.30
2022-09-20T04:35:30.141Z,31.36
2022-09-20T04:37:56.459Z,31.52
2022-09-20T04:40:22.902Z,31.25
2022-09-20T04:42:49.489Z,31.23
2022-09-20T04:45:15.815Z,31.49
2022-09-20T04:47:42.147Z,31.25
2022-09-20T04:50:08.508Z,31.44
2022-09-20T04:52:34.839Z,31.36
2022-09-20T04:55:01.159Z,31.45
2022-09-20T04:57:27.470Z,31.47
2022-09-20T04:59:53.827Z,31.52
2022-09-20T05:02:20.248Z,31.38
2022-09-20T05:04:46.639Z,31.35
2022-09-20T05:07:12.990Z,31.43
2022-09-20T05:09:39.322Z,31.41
2022-09-20T05:12:05.634Z,31.36
2022-09-20T05:17:03.245Z,31.70
2022-09-20T05:19:29.627Z,31.99
2022-09-20T05:21:55.945Z,31.78
2022-09-20T05:24:22.344Z,31.90
2022-09-20T05:26:48.702Z,31.88
2022-09-20T05:29:15.186Z,32.05
2022-09-20T05:31:41.566Z,32.15
2022-09-20T05:34:07.918Z,32.11
2022-09-20T05:36:34.808Z,32.43
2022-09-20T05:39:03.399Z,32.62
2022-09-20T05:41:30.272Z,32.52
2022-09-20T05:43:56.703Z,32.56
2022-09-20T05:46:23.023Z,32.87
2022-09-20T05:48:49.356Z,32.60
2022-09-20T05:51:15.677Z,32.43
2022-09-20T05:53:41.979Z,32.81
2022-09-20T05:56:08.320Z,32.86
2022-09-20T05:58:34.643Z,32.89
2022-09-20T06:01:00.999Z,32.94
2022-09-20T06:03:27.388Z,33.14
2022-09-20T06:05:53.719Z,33.43
2022-09-20T06:08:20.026Z,33.51
2022-09-20T06:10:46.370Z,33.54
2022-09-20T06:13:12.703Z,33.63
2022-09-20T06:15:39.024Z,33.50
2022-09-20T06:18:05.345Z,33.46
2022-09-20T06:20:31.668Z,33.84
2022-09-20T06:22:57.999Z,33.72
2022-09-20T06:25:24.341Z,33.58
2022-09-20T06:27:50.667Z,33.93
2022-09-20T06:30:16.981Z,33.74
2022-09-20T06:32:43.312Z,33.77
2022-09-20T06:35:09.648Z,33.86
2022-09-20T06:37:35.958Z,34.23
2022-09-20T06:40:02.308Z,34.23
2022-09-20T06:42:28.658Z,34.25
2022-09-20T06:44:54.991Z,34.43
2022-09-20T06:47:21.315Z,34.31
2022-09-20T06:49:47.655Z,34.28
2022-09-20T06:52:14.018Z,34.54
2022-09-20T06:54:40.355Z,34.26
2022-09-20T06:57:06.808Z,34.44
2022-09-20T06:59:33.168Z,34.48
2022-09-20T07:01:59.557Z,34.54
2022-09-20T07:04:25.910Z,34.33
2022-09-20T07:06:52.228Z,34.88
2022-09-20T07:09:18.592Z,34.47
2022-09-20T07:11:44.937Z,34.56
2022-09-20T07:14:11.248Z,34.64
2022-09-20T07:16:37.599Z,34.43
2022-09-20T07:19:03.966Z,34.32
2022-09-20T07:21:30.314Z,34.56
2022-09-20T07:23:56.637Z,34.89
2022-09-20T07:26:22.958Z,35.24
2022-09-20T07:28:49.280Z,35.40
2022-09-20T07:31:15.676Z,35.48
2022-09-20T07:33:42.011Z,35.81
2022-09-20T07:36:08.312Z,35.89
2022-09-20T07:38:34.625Z,35.62
2022-09-20T07:41:00.945Z,35.93
2022-09-20T07:43:27.286Z,36.14
2022-09-20T07:45:53.662Z,35.72
2022-09-20T07:48:20.010Z,36.05
2022-09-20T07:50:46.367Z,36.08
2022-09-20T07:53:12.699Z,36.19
2022-09-20T07:55:39.011Z,35.81
2022-09-20T07:58:05.349Z,35.75
2022-09-20T08:00:31.898Z,35.84
2022-09-20T08:02:58.224Z,35.34
2022-09-20T08:05:24.554Z,35.28
2022-09-20T08:07:50.869Z,35.06
2022-09-20T08:10:17.201Z,34.94
2022-09-20T08:15:29.830Z,34.49
2022-09-20T08:17:56.153Z,34.38
2022-09-20T08:20:22.486Z,34.57
2022-09-20T08:23:06.431Z,34.20
2022-09-20T08:25:35.140Z,34.73
2022-09-20T08:28:01.494Z,34.46
2022-09-20T08:30:28.008Z,34.90
2022-09-20T08:32:54.379Z,35.30
2022-09-20T08:35:20.703Z,34.85
2022-09-20T08:37:47.006Z,35.16
2022-09-20T08:40:13.383Z,35.21
2022-09-20T08:42:44.426Z,35.23
2022-09-20T08:45:11.384Z,35.22
2022-09-20T08:47:37.754Z,35.59
2022-09-20T08:50:11.530Z,35.33
2022-09-20T08:52:38.109Z,35.35
2022-09-20T08:55:07.484Z,35.42
2022-09-20T08:57:34.240Z,35.70
2022-09-20T09:00:00.561Z,35.60
2022-09-20T09:02:26.956Z,35.66
2022-09-20T09:04:53.278Z,35.67
2022-09-20T09:07:19.608Z,36.17
2022-09-20T09:09:45.925Z,36.50
2022-09-20T09:12:12.259Z,36.44
2022-09-20T09:14:38.587Z,36.32
2022-09-20T09:17:04.968Z,36.36
2022-09-20T09:19:34.477Z,36.74
2022-09-20T09:22:00.892Z,36.70
2022-09-20T09:24:27.230Z,36.79
2022-09-20T09:26:53.563Z,36.49
2022-09-20T09:29:19.909Z,36.14
2022-09-20T09:31:46.382Z,36.08
2022-09-20T09:34:12.774Z,36.33
2022-09-20T09:36:39.106Z,36.66
2022-09-20T09:39:05.445Z,36.82
2022-09-20T09:41:31.798Z,37.49
2022-09-20T09:43:58.123Z,36.35
2022-09-20T09:46:24.537Z,36.52
2022-09-20T09:48:50.932Z,37.14
2022-09-20T09:51:17.275Z,37.20
2022-09-20T09:53:43.615Z,37.48
2022-09-20T09:56:14.030Z,37.23
2022-09-20T09:58:40.707Z,37.47
2022-09-20T10:01:07.097Z,37.34
2022-09-20T10:03:33.425Z,37.05
2022-09-20T10:05:59.779Z,36.90
2022-09-20T10:08:26.113Z,36.38
2022-09-20T10:10:52.477Z,36.81
2022-09-20T10:13:18.790Z,36.13
2022-09-20T10:15:45.146Z,36.45
2022-09-20T10:18:11.465Z,36.47
2022-09-20T10:20:37.786Z,36.85
2022-09-20T10:23:39.489Z,36.53
2022-09-20T10:25:50.442Z,36.70
2022-09-20T10:28:16.770Z,36.48
2022-09-20T10:30:43.212Z,36.20
2022-09-20T10:33:09.596Z,36.32
2022-09-20T10:35:35.933Z,36.19
2022-09-20T10:38:02.285Z,36.18
2022-09-20T10:40:28.652Z,36.02
2022-09-20T10:42:55.048Z,35.31
2022-09-20T10:45:53.345Z,35.06
2022-09-20T10:48:07.680Z,34.99
2022-09-20T10:50:34.001Z,35.31
2022-09-20T10:53:00.316Z,35.15
2022-09-20T10:55:26.641Z,35.23
2022-09-20T10:57:53.198Z,35.33
2022-09-20T11:00:19.530Z,35.15
2022-09-20T11:02:45.855Z,35.11
2022-09-20T11:05:12.186Z,35.47
2022-09-20T11:07:38.515Z,35.20
2022-09-20T11:10:04.855Z,35.14
2022-09-20T11:12:31.183Z,35.04
2022-09-20T11:14:57.514Z,34.90
2022-09-20T11:17:23.849Z,34.70
2022-09-20T11:19:50.173Z,34.63
2022-09-20T11:22:16.497Z,35.26
2022-09-20T11:24:42.827Z,34.94
2022-09-20T11:27:09.159Z,35.12
2022-09-20T11:29:35.543Z,35.05
2022-09-20T11:32:01.975Z,35.39
2022-09-20T11:34:28.344Z,35.17
2022-09-20T11:36:54.693Z,35.04
2022-09-20T11:39:21.026Z,34.89
2022-09-20T11:41:47.345Z,35.08
2022-09-20T11:44:13.667Z,34.95
2022-09-20T11:46:40.003Z,35.15
2022-09-20T11:49:06.336Z,35.13
2022-09-20T11:51:32.716Z,34.95
2022-09-20T11:53:59.042Z,34.65
2022-09-20T11:56:25.366Z,35.21
2022-09-20T11:58:51.686Z,35.10
2022-09-20T12:01:18.022Z,34.91
2022-09-20T12:03:44.354Z,34.45
2022-09-20T12:06:10.679Z,33.65
2022-09-20T12:08:37.010Z,34.72
2022-09-20T12:11:03.338Z,34.83
2022-09-20T12:13:29.670Z,34.93
2022-09-20T12:15:56.073Z,35.12
2022-09-20T12:18:22.481Z,35.07
2022-09-20T12:20:48.838Z,34.98
2022-09-20T12:23:15.211Z,34.95
2022-09-20T12:25:41.541Z,34.51
2022-09-20T12:28:07.850Z,34.53
2022-09-20T12:30:34.179Z,34.46
2022-09-20T12:33:00.503Z,34.60
2022-09-20T12:35:27.047Z,34.55
2022-09-20T12:37:53.405Z,34.59
2022-09-20T12:40:19.762Z,34.33
2022-09-20T12:42:46.106Z,34.53
2022-09-20T12:45:12.439Z,34.63
2022-09-20T12:47:38.760Z,34.35
2022-09-20T12:50:05.067Z,34.92
2022-09-20T12:52:31.450Z,34.81
2022-09-20T12:55:00.944Z,34.78
2022-09-20T12:57:30.249Z,34.63
2022-09-20T12:59:56.636Z,34.83
2022-09-20T13:02:22.996Z,34.55
2022-09-20T13:04:49.418Z,34.38
2022-09-20T13:07:15.750Z,34.55
2022-09-20T13:09:42.093Z,34.72
2022-09-20T13:12:08.421Z,34.49
2022-09-20T13:14:34.764Z,34.13
2022-09-20T13:17:01.086Z,34.40
2022-09-20T13:19:27.428Z,34.44
2022-09-20T13:21:53.755Z,33.78
2022-09-20T13:24:20.090Z,33.69
2022-09-20T13:26:46.421Z,33.52
2022-09-20T13:29:12.755Z,33.70
2022-09-20T13:31:39.130Z,33.29
2022-09-20T13:34:05.550Z,33.62
2022-09-20T13:36:31.970Z,33.47
2022-09-20T13:38:58.356Z,33.36
2022-09-20T13:41:24.661Z,33.23
2022-09-20T13:43:51.045Z,33.47
2022-09-20T13:46:17.449Z,33.88
2022-09-20T13:48:43.908Z,33.81
2022-09-20T13:51:10.237Z,33.85
2022-09-20T13:53:43.769Z,33.85
2022-09-20T13:56:10.101Z,33.94
2022-09-20T13:58:36.417Z,31.85
2022-09-20T14:01:02.832Z,32.96
2022-09-20T14:03:29.203Z,34.60
2022-09-20T14:05:55.602Z,34.83
2022-09-20T14:08:21.948Z,34.82
2022-09-20T14:10:48.273Z,34.25
2022-09-20T14:13:14.609Z,34.23
2022-09-20T14:15:40.949Z,34.77
2022-09-20T14:18:07.282Z,35.01
2022-09-20T14:20:33.598Z,35.03
2022-09-20T14:22:59.924Z,34.82
2022-09-20T14:25:26.268Z,34.18
2022-09-20T14:27:52.670Z,34.28
2022-09-20T14:30:19.006Z,33.52
2022-09-20T14:32:45.336Z,33.62
2022-09-20T14:35:11.660Z,33.57
2022-09-20T14:37:38.054Z,33.21
2022-09-20T14:40:04.425Z,33.42
2022-09-20T14:42:30.787Z,33.32
2022-09-20T14:44:57.109Z,32.68
2022-09-20T14:47:23.455Z,31.50
2022-09-20T14:49:49.781Z,32.11
2022-09-20T14:52:16.105Z,32.27
2022-09-20T14:54:42.443Z,31.67
2022-09-20T14:57:08.767Z,31.70
2022-09-20T14:59:35.083Z,32.08
2022-09-20T15:02:01.419Z,31.65
2022-09-20T15:04:27.752Z,31.63
2022-09-20T15:06:54.077Z,31.54
2022-09-20T15:09:20.398Z,29.12
2022-09-20T15:11:46.728Z,30.66
2022-09-20T15:14:13.028Z,30.61
2022-09-20T15:16:39.437Z,31.14
2022-09-20T15:19:05.888Z,30.85
2022-09-20T15:21:32.301Z,30.31
2022-09-20T15:23:58.640Z,29.91
2022-09-20T15:26:24.972Z,29.19
2022-09-20T15:28:51.297Z,29.26
2022-09-20T15:31:17.642Z,30.00
2022-09-20T15:33:43.986Z,30.10
2022-09-20T15:36:10.327Z,30.09
2022-09-20T15:38:36.647Z,29.85
2022-09-20T15:41:02.967Z,29.83
2022-09-20T15:43:29.280Z,30.35
2022-09-20T15:45:55.693Z,28.92
2022-09-20T15:48:22.055Z,29.18
2022-09-20T15:50:48.378Z,29.24
2022-09-20T15:53:14.711Z,29.46
2022-09-20T15:55:41.034Z,29.52
2022-09-20T15:58:07.364Z,29.79
2022-09-20T16:00:33.676Z,29.81
2022-09-20T16:03:00.009Z,29.67
2022-09-20T16:05:26.331Z,29.32
2022-09-20T16:07:52.664Z,28.03
2022-09-20T16:10:19.032Z,28.97
2022-09-20T16:12:45.407Z,29.22
2022-09-20T16:15:11.716Z,29.23
2022-09-20T16:17:38.044Z,29.62
2022-09-20T16:20:04.352Z,29.54
2022-09-20T16:22:30.684Z,29.49
2022-09-20T16:24:57.022Z,29.31
2022-09-20T16:27:23.334Z,29.48
2022-09-20T16:29:49.660Z,29.34
2022-09-20T16:32:15.970Z,29.27
2022-09-20T16:34:42.320Z,28.53
2022-09-20T16:37:08.659Z,29.12
2022-09-20T16:39:34.991Z,29.09
2022-09-20T16:42:01.337Z,29.11
2022-09-20T16:44:27.654Z,28.98
2022-09-20T16:46:54.033Z,29.01
2022-09-20T16:49:20.456Z,29.38
2022-09-20T16:51:46.824Z,29.31
2022-09-20T16:54:13.304Z,29.15
2022-09-20T16:56:39.719Z,28.67
2022-09-20T16:59:06.097Z,29.22
2022-09-20T17:01:32.408Z,29.69
2022-09-20T17:03:58.862Z,29.62
2022-09-20T17:06:25.198Z,29.49
2022-09-20T17:08:54.524Z,29.81
2022-09-20T17:11:23.190Z,30.08
2022-09-20T17:13:49.600Z,29.97
2022-09-20T17:16:16.027Z,30.07
2022-09-20T17:18:42.350Z,30.26
2022-09-20T17:21:08.714Z,30.27
2022-09-20T17:23:35.117Z,30.01
2022-09-20T17:26:01.584Z,30.27
2022-09-20T17:28:28.038Z,30.35
2022-09-20T17:30:54.421Z,30.29
2022-09-20T17:33:20.883Z,30.53
2022-09-20T17:35:47.309Z,30.87
2022-09-20T17:38:13.747Z,30.79
2022-09-20T17:40:40.285Z,31.13
2022-09-20T17:43:06.719Z,31.00
2022-09-20T17:45:33.168Z,31.08
2022-09-20T17:47:59.633Z,31.05
2022-09-20T17:50:26.113Z,31.12
2022-09-20T17:52:52.470Z,31.20
2022-09-20T17:55:18.911Z,30.92
2022-09-20T17:57:45.303Z,31.07
2022-09-20T18:00:11.697Z,31.10
2022-09-20T18:02:38.049Z,30.95
2022-09-20T18:05:04.370Z,31.37
2022-09-20T18:07:30.739Z,30.86
2022-09-20T18:09:57.171Z,31.40
2022-09-20T18:12:23.557Z,31.67
2022-09-20T18:14:50.039Z,31.61
2022-09-20T18:17:16.372Z,31.52
2022-09-20T18:19:42.729Z,33.74
2022-09-20T18:22:09.045Z,34.14
2022-09-20T18:24:35.373Z,33.23
2022-09-20T18:27:01.763Z,34.08
2022-09-20T18:29:28.155Z,32.50
2022-09-20T18:31:54.660Z,32.19
2022-09-20T18:34:21.031Z,32.92
2022-09-20T18:36:47.377Z,34.22
2022-09-20T18:39:13.703Z,32.84
2022-09-20T18:41:40.017Z,33.49
2022-09-20T18:44:06.480Z,34.18
2022-09-20T18:46:32.846Z,32.97
2022-09-20T18:48:59.230Z,32.74
2022-09-20T18:51:25.568Z,32.23
2022-09-20T18:53:51.912Z,32.92
2022-09-20T18:56:18.245Z,31.96
2022-09-20T18:58:44.597Z,32.42
2022-09-20T19:01:11.095Z,32.18
2022-09-20T19:03:37.506Z,31.76
2022-09-20T19:06:03.898Z,31.65
2022-09-20T19:08:30.228Z,32.43
2022-09-20T19:10:56.594Z,31.83
2022-09-20T19:13:22.986Z,32.74
2022-09-20T19:15:49.393Z,32.15
2022-09-20T19:18:18.354Z,32.73
2022-09-20T19:20:46.847Z,32.72
2022-09-20T19:23:13.309Z,32.36
2022-09-20T19:25:39.657Z,32.47
2022-09-20T19:28:06.098Z,31.89
2022-09-20T19:30:32.427Z,31.96
2022-09-20T19:32:58.760Z,32.03
2022-09-20T19:35:25.128Z,32.10
2022-09-20T19:37:51.498Z,31.83
2022-09-20T19:40:17.869Z,31.85
2022-09-20T19:42:44.289Z,31.71
2022-09-20T19:45:10.764Z,31.72
2022-09-20T19:47:37.120Z,31.57
2022-09-20T19:50:03.438Z,31.49
2022-09-20T19:52:29.861Z,31.62
2022-09-20T19:54:56.215Z,31.36
2022-09-20T19:57:22.548Z,31.42
2022-09-20T19:59:48.933Z,31.89
2022-09-20T20:02:15.263Z,32.80
2022-09-20T20:04:41.808Z,32.95
2022-09-20T20:07:08.240Z,32.84
2022-09-20T20:09:34.583Z,33.46
2022-09-20T20:12:00.911Z,33.40
2022-09-20T20:14:27.330Z,33.50
2022-09-20T20:16:53.654Z,33.77
2022-09-20T20:19:19.999Z,33.86
2022-09-20T20:21:46.316Z,34.68
2022-09-20T20:24:12.646Z,35.05
2022-09-20T20:26:38.995Z,35.36
2022-09-20T20:29:05.331Z,35.93
2022-09-20T20:31:31.662Z,36.22
2022-09-20T20:33:58.127Z,35.89
2022-09-20T20:36:24.560Z,35.67
2022-09-20T20:38:50.890Z,35.25
2022-09-20T20:41:17.189Z,35.66
2022-09-20T20:43:43.549Z,34.49
2022-09-20T20:46:09.910Z,34.59
2022-09-20T20:48:36.346Z,34.00
2022-09-20T20:51:02.689Z,33.87
2022-09-20T20:53:29.295Z,34.09
2022-09-20T20:55:55.629Z,33.78
2022-09-20T20:58:22.149Z,33.61
2022-09-20T21:00:48.474Z,33.44
2022-09-20T21:03:14.809Z,33.22
2022-09-20T21:05:41.166Z,33.34
2022-09-20T21:08:07.540Z,33.26
2022-09-20T21:10:33.852Z,32.74
2022-09-20T21:13:00.183Z,32.70
2022-09-20T21:15:26.543Z,33.02
2022-09-20T21:17:54.019Z,32.79
2022-09-20T21:20:20.348Z,32.38
2022-09-20T21:22:46.665Z,32.42
2022-09-20T21:25:12.982Z,32.36
2022-09-20T21:27:39.303Z,32.47
2022-09-20T21:30:05.761Z,32.72
2022-09-20T21:32:32.220Z,32.07
2022-09-20T21:34:58.570Z,32.77
2022-09-20T21:37:25.050Z,32.98
2022-09-20T21:39:51.426Z,33.10
2022-09-20T21:42:17.839Z,32.86
2022-09-20T21:44:44.181Z,33.39
2022-09-20T21:47:10.500Z,33.43
2022-09-20T21:49:36.800Z,33.30
2022-09-20T21:52:03.136Z,33.63
2022-09-20T21:54:29.473Z,33.27
2022-09-20T21:56:55.831Z,33.47
2022-09-20T21:59:22.147Z,33.74
2022-09-20T22:01:48.517Z,33.73
2022-09-20T22:04:15.311Z,33.77
2022-09-20T22:06:41.643Z,33.44
2022-09-20T22:09:07.972Z,33.97
2022-09-20T22:11:34.330Z,33.66
2022-09-20T22:14:00.648Z,33.52
2022-09-20T22:16:26.957Z,33.58
2022-09-20T22:18:53.271Z,33.85
2022-09-20T22:21:19.615Z,33.98
2022-09-20T22:23:45.944Z,33.99
2022-09-20T22:26:12.262Z,34.12
2022-09-20T22:28:38.585Z,33.63
2022-09-20T22:31:04.930Z,34.20
2022-09-20T22:33:31.259Z,34.14
2022-09-20T22:35:57.593Z,33.96
2022-09-20T22:38:23.901Z,34.16
2022-09-20T22:40:50.231Z,34.05
2022-09-20T22:43:16.548Z,34.06
2022-09-20T22:45:42.905Z,34.06
2022-09-20T22:48:09.252Z,34.37
2022-09-20T22:50:35.578Z,34.20
2022-09-20T22:53:01.892Z,34.10
2022-09-20T22:55:28.213Z,34.49
2022-09-20T22:57:54.546Z,34.47
2022-09-20T23:00:20.964Z,34.38
2022-09-20T23:02:47.283Z,34.50
2022-09-20T23:05:13.613Z,34.57
2022-09-20T23:07:39.949Z,34.63
2022-09-20T23:10:06.331Z,34.64
2022-09-20T23:12:32.677Z,34.76
2022-09-20T23:14:59.000Z,34.98
2022-09-20T23:17:25.345Z,35.05
2022-09-20T23:19:51.690Z,34.96
2022-09-20T23:22:18.008Z,35.07
2022-09-20T23:24:44.336Z,35.29
2022-09-20T23:27:10.659Z,35.21
2022-09-20T23:29:36.965Z,35.48
2022-09-20T23:32:03.320Z,35.52
2022-09-20T23:34:29.652Z,35.74
2022-09-20T23:36:55.990Z,35.78
2022-09-20T23:39:22.316Z,35.67
2022-09-20T23:41:51.089Z,35.87
2022-09-20T23:44:17.789Z,36.17
2022-09-20T23:46:44.122Z,36.27
2022-09-20T23:49:10.458Z,36.50
2022-09-20T23:51:36.790Z,36.56
2022-09-20T23:54:03.144Z,36.49
2022-09-20T23:56:29.475Z,36.70
2022-09-20T23:58:55.826Z,36.77
